sensor_id;sensor_type;location;lat;lon;timestamp;pressure;altitude;pressure_sealevel;temperature;humidity
75521;BME280;64102;48.628;9.002;2022-12-07T00:02:23;96065.06;;;1.65;92.67
75521;BME280;64102;48.628;9.002;2022-12-07T00:04:49;96065.41;;;1.59;92.80
75521;BME280;64102;48.628;9.002;2022-12-07T00:07:14;96069.59;;;1.60;93.40
75521;BME280;64102;48.628;9.002;2022-12-07T00:09:40;96072.72;;;1.65;92.88
75521;BME280;64102;48.628;9.002;2022-12-07T00:12:07;96064.25;;;1.64;92.85
75521;BME280;64102;48.628;9.002;2022-12-07T00:14:33;96071.13;;;1.62;93.21
75521;BME280;64102;48.628;9.002;2022-12-07T00:16:58;96065.22;;;1.62;93.29
75521;BME280;64102;48.628;9.002;2022-12-07T00:19:23;96067.88;;;1.60;93.11
75521;BME280;64102;48.628;9.002;2022-12-07T00:21:49;96068.03;;;1.57;92.97
75521;BME280;64102;48.628;9.002;2022-12-07T00:24:14;96071.22;;;1.61;93.00
75521;BME280;64102;48.628;9.002;2022-12-07T00:26:41;96070.16;;;1.65;92.73
75521;BME280;64102;48.628;9.002;2022-12-07T00:29:12;96071.88;;;1.64;93.23
75521;BME280;64102;48.628;9.002;2022-12-07T00:31:38;96066.63;;;1.67;93.04
75521;BME280;64102;48.628;9.002;2022-12-07T00:34:05;96064.06;;;1.67;92.69
75521;BME280;64102;48.628;9.002;2022-12-07T00:36:31;96062.59;;;1.63;92.83
75521;BME280;64102;48.628;9.002;2022-12-07T00:38:58;96058.41;;;1.62;93.13
75521;BME280;64102;48.628;9.002;2022-12-07T00:41:25;96060.13;;;1.62;93.09
75521;BME280;64102;48.628;9.002;2022-12-07T00:43:51;96060.31;;;1.59;93.22
75521;BME280;64102;48.628;9.002;2022-12-07T00:46:18;96061.72;;;1.64;92.68
75521;BME280;64102;48.628;9.002;2022-12-07T00:48:43;96058.41;;;1.62;92.69
75521;BME280;64102;48.628;9.002;2022-12-07T00:51:11;96053.50;;;1.59;92.92
75521;BME280;64102;48.628;9.002;2022-12-07T00:53:37;96056.78;;;1.61;93.09
75521;BME280;64102;48.628;9.002;2022-12-07T00:56:07;96049.91;;;1.63;92.73
75521;BME280;64102;48.628;9.002;2022-12-07T00:58:33;96050.72;;;1.64;92.32
75521;BME280;64102;48.628;9.002;2022-12-07T01:01:03;96057.34;;;1.66;92.49
75521;BME280;64102;48.628;9.002;2022-12-07T01:03:29;96055.53;;;1.68;92.35
75521;BME280;64102;48.628;9.002;2022-12-07T01:05:55;96050.28;;;1.71;92.08
75521;BME280;64102;48.628;9.002;2022-12-07T01:08:22;96055.53;;;1.68;92.42
75521;BME280;64102;48.628;9.002;2022-12-07T01:10:48;96045.00;;;1.74;92.03
75521;BME280;64102;48.628;9.002;2022-12-07T01:13:14;96053.00;;;1.68;92.42
75521;BME280;64102;48.628;9.002;2022-12-07T01:15:41;96053.34;;;1.62;92.32
75521;BME280;64102;48.628;9.002;2022-12-07T01:18:06;96054.16;;;1.63;92.25
75521;BME280;64102;48.628;9.002;2022-12-07T01:20:32;96054.91;;;1.65;92.20
75521;BME280;64102;48.628;9.002;2022-12-07T01:22:57;96065.16;;;1.63;92.05
75521;BME280;64102;48.628;9.002;2022-12-07T01:25:22;96061.72;;;1.64;92.26
75521;BME280;64102;48.628;9.002;2022-12-07T01:27:47;96056.31;;;1.55;92.66
75521;BME280;64102;48.628;9.002;2022-12-07T01:30:13;96066.03;;;1.78;92.17
75521;BME280;64102;48.628;9.002;2022-12-07T01:32:38;96063.06;;;1.70;91.59
75521;BME280;64102;48.628;9.002;2022-12-07T01:35:04;96060.44;;;1.71;90.90
75521;BME280;64102;48.628;9.002;2022-12-07T01:37:34;96069.66;;;1.58;91.61
75521;BME280;64102;48.628;9.002;2022-12-07T01:40:00;96061.97;;;1.44;92.67
75521;BME280;64102;48.628;9.002;2022-12-07T01:42:25;96068.88;;;1.42;92.92
75521;BME280;64102;48.628;9.002;2022-12-07T01:47:55;96062.88;;;1.43;93.34
75521;BME280;64102;48.628;9.002;2022-12-07T01:50:24;96068.03;;;1.57;92.09
75521;BME280;64102;48.628;9.002;2022-12-07T01:52:53;96059.53;;;1.43;91.63
75521;BME280;64102;48.628;9.002;2022-12-07T01:55:19;96067.06;;;1.44;90.79
75521;BME280;64102;48.628;9.002;2022-12-07T01:57:49;96069.03;;;1.39;90.77
75521;BME280;64102;48.628;9.002;2022-12-07T02:00:16;96078.78;;;1.31;91.11
75521;BME280;64102;48.628;9.002;2022-12-07T02:02:55;96074.59;;;1.30;91.61
75521;BME280;64102;48.628;9.002;2022-12-07T02:05:24;96079.16;;;1.25;91.48
75521;BME280;64102;48.628;9.002;2022-12-07T02:07:51;96080.53;;;1.15;91.56
75521;BME280;64102;48.628;9.002;2022-12-07T02:10:26;96074.44;;;1.17;92.11
75521;BME280;64102;48.628;9.002;2022-12-07T02:12:55;96077.34;;;1.11;92.04
75521;BME280;64102;48.628;9.002;2022-12-07T02:15:29;96081.97;;;1.03;92.75
75521;BME280;64102;48.628;9.002;2022-12-07T02:18:08;96089.66;;;0.86;92.94
75521;BME280;64102;48.628;9.002;2022-12-07T02:23:41;96078.44;;;0.74;93.37
75521;BME280;64102;48.628;9.002;2022-12-07T02:29:27;96076.88;;;0.72;93.29
75521;BME280;64102;48.628;9.002;2022-12-07T02:34:37;96066.38;;;0.62;94.33
75521;BME280;64102;48.628;9.002;2022-12-07T02:37:13;96068.34;;;0.57;94.32
75521;BME280;64102;48.628;9.002;2022-12-07T02:39:57;96069.22;;;0.56;94.64
75521;BME280;64102;48.628;9.002;2022-12-07T02:42:32;96069.66;;;0.64;94.49
75521;BME280;64102;48.628;9.002;2022-12-07T02:45:01;96072.78;;;0.69;93.30
75521;BME280;64102;48.628;9.002;2022-12-07T02:47:28;96067.28;;;0.61;93.19
75521;BME280;64102;48.628;9.002;2022-12-07T02:49:55;96061.31;;;0.62;92.46
75521;BME280;64102;48.628;9.002;2022-12-07T02:52:20;96064.31;;;0.53;92.69
75521;BME280;64102;48.628;9.002;2022-12-07T02:54:45;96061.78;;;0.53;92.96
75521;BME280;64102;48.628;9.002;2022-12-07T03:00:16;96060.59;;;0.43;93.62
75521;BME280;64102;48.628;9.002;2022-12-07T03:02:51;96057.25;;;0.42;93.86
75521;BME280;64102;48.628;9.002;2022-12-07T03:10:56;96042.06;;;0.41;94.40
75521;BME280;64102;48.628;9.002;2022-12-07T03:19:09;96043.41;;;0.48;93.89
75521;BME280;64102;48.628;9.002;2022-12-07T03:21:44;96044.00;;;0.53;93.33
75521;BME280;64102;48.628;9.002;2022-12-07T03:24:15;96041.78;;;0.47;93.59
75521;BME280;64102;48.628;9.002;2022-12-07T03:26:45;96042.31;;;0.36;94.02
75521;BME280;64102;48.628;9.002;2022-12-07T03:29:17;96042.41;;;0.35;94.61
75521;BME280;64102;48.628;9.002;2022-12-07T03:31:48;96035.53;;;0.37;95.02
75521;BME280;64102;48.628;9.002;2022-12-07T03:34:20;96040.13;;;0.46;94.25
75521;BME280;64102;48.628;9.002;2022-12-07T03:41:45;96032.78;;;0.24;95.14
75521;BME280;64102;48.628;9.002;2022-12-07T03:44:12;96041.38;;;0.22;95.39
75521;BME280;64102;48.628;9.002;2022-12-07T03:51:59;96033.75;;;0.39;95.57
75521;BME280;64102;48.628;9.002;2022-12-07T03:54:47;96026.19;;;0.37;95.67
75521;BME280;64102;48.628;9.002;2022-12-07T03:57:15;96026.50;;;0.31;95.57
75521;BME280;64102;48.628;9.002;2022-12-07T03:59:42;96029.84;;;0.32;95.55
75521;BME280;64102;48.628;9.002;2022-12-07T04:02:11;96033.88;;;0.36;95.80
75521;BME280;64102;48.628;9.002;2022-12-07T04:04:37;96036.28;;;0.39;95.81
75521;BME280;64102;48.628;9.002;2022-12-07T04:07:03;96036.34;;;0.37;95.80
75521;BME280;64102;48.628;9.002;2022-12-07T04:09:28;96038.59;;;0.43;95.73
75521;BME280;64102;48.628;9.002;2022-12-07T04:11:54;96031.44;;;0.50;95.17
75521;BME280;64102;48.628;9.002;2022-12-07T04:14:19;96027.78;;;0.56;94.70
75521;BME280;64102;48.628;9.002;2022-12-07T04:16:49;96027.38;;;0.48;95.03
75521;BME280;64102;48.628;9.002;2022-12-07T04:19:16;96030.41;;;0.54;94.61
75521;BME280;64102;48.628;9.002;2022-12-07T04:21:42;96026.25;;;0.53;94.44
75521;BME280;64102;48.628;9.002;2022-12-07T04:24:08;96027.19;;;0.51;94.83
75521;BME280;64102;48.628;9.002;2022-12-07T04:26:33;96017.69;;;0.38;95.24
75521;BME280;64102;48.628;9.002;2022-12-07T04:28:59;96026.84;;;0.41;95.39
75521;BME280;64102;48.628;9.002;2022-12-07T04:31:24;96017.53;;;0.41;95.75
75521;BME280;64102;48.628;9.002;2022-12-07T04:33:50;96017.63;;;0.40;95.98
75521;BME280;64102;48.628;9.002;2022-12-07T04:36:15;96020.66;;;0.47;95.39
75521;BME280;64102;48.628;9.002;2022-12-07T04:38:41;96029.66;;;0.52;95.09
75521;BME280;64102;48.628;9.002;2022-12-07T04:41:07;96033.44;;;0.61;94.74
75521;BME280;64102;48.628;9.002;2022-12-07T04:43:33;96028.44;;;0.59;94.61
75521;BME280;64102;48.628;9.002;2022-12-07T04:45:59;96031.50;;;0.66;93.46
75521;BME280;64102;48.628;9.002;2022-12-07T04:48:24;96016.81;;;0.55;93.35
75521;BME280;64102;48.628;9.002;2022-12-07T04:50:50;96017.28;;;0.46;93.71
75521;BME280;64102;48.628;9.002;2022-12-07T04:53:16;96020.81;;;0.43;94.00
75521;BME280;64102;48.628;9.002;2022-12-07T04:55:41;96019.34;;;0.39;94.22
75521;BME280;64102;48.628;9.002;2022-12-07T04:58:07;96021.28;;;0.34;94.55
75521;BME280;64102;48.628;9.002;2022-12-07T05:00:32;96014.25;;;0.39;94.08
75521;BME280;64102;48.628;9.002;2022-12-07T05:02:58;96017.53;;;0.41;93.98
75521;BME280;64102;48.628;9.002;2022-12-07T05:05:23;96019.72;;;0.32;94.37
75521;BME280;64102;48.628;9.002;2022-12-07T05:07:50;96023.16;;;0.31;94.38
75521;BME280;64102;48.628;9.002;2022-12-07T05:10:15;96007.59;;;0.21;94.61
75521;BME280;64102;48.628;9.002;2022-12-07T05:12:41;96005.56;;;0.11;94.75
75521;BME280;64102;48.628;9.002;2022-12-07T05:15:06;95996.78;;;0.00;95.03
75521;BME280;64102;48.628;9.002;2022-12-07T05:17:31;95995.00;;;0.03;94.31
75521;BME280;64102;48.628;9.002;2022-12-07T05:19:57;95991.88;;;-0.03;93.99
75521;BME280;64102;48.628;9.002;2022-12-07T05:22:22;95998.28;;;-0.13;93.80
75521;BME280;64102;48.628;9.002;2022-12-07T05:24:47;95998.75;;;-0.39;92.89
75521;BME280;64102;48.628;9.002;2022-12-07T05:27:13;96001.22;;;-0.55;93.30
75521;BME280;64102;48.628;9.002;2022-12-07T05:29:38;96007.25;;;-0.57;95.08
75521;BME280;64102;48.628;9.002;2022-12-07T05:32:04;96002.13;;;-0.56;95.74
75521;BME280;64102;48.628;9.002;2022-12-07T05:34:29;96004.88;;;-0.43;95.88
75521;BME280;64102;48.628;9.002;2022-12-07T05:36:54;95996.97;;;-0.37;96.26
75521;BME280;64102;48.628;9.002;2022-12-07T05:39:20;95994.34;;;-0.35;95.92
75521;BME280;64102;48.628;9.002;2022-12-07T05:41:45;95988.97;;;-0.12;94.78
75521;BME280;64102;48.628;9.002;2022-12-07T05:44:29;95986.75;;;-0.18;93.80
75521;BME280;64102;48.628;9.002;2022-12-07T05:46:54;95987.13;;;-0.26;93.47
75521;BME280;64102;48.628;9.002;2022-12-07T05:49:20;95991.16;;;-0.39;93.55
75521;BME280;64102;48.628;9.002;2022-12-07T05:51:45;95998.38;;;-0.49;94.06
75521;BME280;64102;48.628;9.002;2022-12-07T05:54:10;96001.88;;;-0.68;93.90
75521;BME280;64102;48.628;9.002;2022-12-07T05:56:36;95999.84;;;-0.79;94.46
75521;BME280;64102;48.628;9.002;2022-12-07T05:59:01;96006.94;;;-0.85;94.58
75521;BME280;64102;48.628;9.002;2022-12-07T06:01:45;96000.88;;;-1.19;92.75
75521;BME280;64102;48.628;9.002;2022-12-07T06:04:10;96006.75;;;-1.18;94.98
75521;BME280;64102;48.628;9.002;2022-12-07T06:06:36;96011.00;;;-1.19;95.59
75521;BME280;64102;48.628;9.002;2022-12-07T06:09:02;96013.59;;;-1.20;95.18
75521;BME280;64102;48.628;9.002;2022-12-07T06:11:28;96012.03;;;-1.04;95.59
75521;BME280;64102;48.628;9.002;2022-12-07T06:14:11;96015.78;;;-1.13;95.93
75521;BME280;64102;48.628;9.002;2022-12-07T06:16:46;96016.94;;;-1.20;95.64
75521;BME280;64102;48.628;9.002;2022-12-07T06:19:11;96017.66;;;-1.16;96.37
75521;BME280;64102;48.628;9.002;2022-12-07T06:21:37;96012.50;;;-1.15;96.31
75521;BME280;64102;48.628;9.002;2022-12-07T06:24:02;96010.59;;;-1.10;96.21
75521;BME280;64102;48.628;9.002;2022-12-07T06:26:28;96023.19;;;-1.08;96.27
75521;BME280;64102;48.628;9.002;2022-12-07T06:28:53;96019.69;;;-1.06;96.81
75521;BME280;64102;48.628;9.002;2022-12-07T06:31:19;96018.78;;;-1.05;96.51
75521;BME280;64102;48.628;9.002;2022-12-07T06:33:44;96028.22;;;-0.89;96.79
75521;BME280;64102;48.628;9.002;2022-12-07T06:36:10;96030.19;;;-0.77;97.38
75521;BME280;64102;48.628;9.002;2022-12-07T06:38:36;96032.81;;;-0.62;97.67
75521;BME280;64102;48.628;9.002;2022-12-07T06:41:01;96029.09;;;-0.55;97.10
75521;BME280;64102;48.628;9.002;2022-12-07T06:43:27;96027.69;;;-0.43;97.57
75521;BME280;64102;48.628;9.002;2022-12-07T06:45:52;96025.69;;;-0.36;97.11
75521;BME280;64102;48.628;9.002;2022-12-07T06:48:18;96032.25;;;-0.32;97.21
75521;BME280;64102;48.628;9.002;2022-12-07T06:50:47;96033.41;;;-0.22;96.78
75521;BME280;64102;48.628;9.002;2022-12-07T06:53:13;96036.50;;;-0.16;96.55
75521;BME280;64102;48.628;9.002;2022-12-07T06:55:38;96044.75;;;-0.12;96.87
75521;BME280;64102;48.628;9.002;2022-12-07T06:58:04;96042.22;;;-0.12;96.63
75521;BME280;64102;48.628;9.002;2022-12-07T07:00:30;96047.22;;;-0.11;96.32
75521;BME280;64102;48.628;9.002;2022-12-07T07:02:56;96046.34;;;-0.10;96.19
75521;BME280;64102;48.628;9.002;2022-12-07T07:05:21;96041.13;;;-0.07;96.67
75521;BME280;64102;48.628;9.002;2022-12-07T07:07:48;96044.41;;;-0.05;96.05
75521;BME280;64102;48.628;9.002;2022-12-07T07:10:13;96042.59;;;-0.03;96.41
75521;BME280;64102;48.628;9.002;2022-12-07T07:12:39;96039.34;;;-0.05;96.13
75521;BME280;64102;48.628;9.002;2022-12-07T07:15:05;96042.88;;;-0.09;96.20
75521;BME280;64102;48.628;9.002;2022-12-07T07:17:30;96050.59;;;-0.10;96.41
75521;BME280;64102;48.628;9.002;2022-12-07T07:19:55;96041.78;;;-0.03;96.52
75521;BME280;64102;48.628;9.002;2022-12-07T07:22:21;96037.53;;;-0.03;95.90
75521;BME280;64102;48.628;9.002;2022-12-07T07:24:46;96033.88;;;0.03;95.79
75521;BME280;64102;48.628;9.002;2022-12-07T07:27:12;96039.53;;;0.08;95.36
75521;BME280;64102;48.628;9.002;2022-12-07T07:29:37;96032.44;;;0.15;93.77
75521;BME280;64102;48.628;9.002;2022-12-07T07:32:03;96027.22;;;0.18;92.95
75521;BME280;64102;48.628;9.002;2022-12-07T07:34:28;96036.56;;;0.17;92.63
75521;BME280;64102;48.628;9.002;2022-12-07T07:36:54;96035.50;;;0.21;92.33
75521;BME280;64102;48.628;9.002;2022-12-07T07:39:19;96031.66;;;0.30;90.74
75521;BME280;64102;48.628;9.002;2022-12-07T07:41:46;96036.00;;;0.28;90.99
75521;BME280;64102;48.628;9.002;2022-12-07T07:44:12;96032.31;;;0.33;90.75
75521;BME280;64102;48.628;9.002;2022-12-07T07:46:37;96037.94;;;0.40;89.04
75521;BME280;64102;48.628;9.002;2022-12-07T07:49:03;96040.22;;;0.44;88.99
75521;BME280;64102;48.628;9.002;2022-12-07T07:51:28;96042.44;;;0.51;88.38
75521;BME280;64102;48.628;9.002;2022-12-07T07:53:54;96041.47;;;0.53;87.17
75521;BME280;64102;48.628;9.002;2022-12-07T07:56:19;96040.78;;;0.50;89.03
75521;BME280;64102;48.628;9.002;2022-12-07T07:58:45;96046.78;;;0.49;89.15
75521;BME280;64102;48.628;9.002;2022-12-07T08:01:10;96060.13;;;0.52;89.66
75521;BME280;64102;48.628;9.002;2022-12-07T08:03:36;96054.59;;;0.61;89.52
75521;BME280;64102;48.628;9.002;2022-12-07T08:06:02;96038.59;;;0.59;89.62
75521;BME280;64102;48.628;9.002;2022-12-07T08:08:28;96052.13;;;0.60;88.17
75521;BME280;64102;48.628;9.002;2022-12-07T08:10:53;96052.03;;;0.61;89.13
75521;BME280;64102;48.628;9.002;2022-12-07T08:13:19;96054.50;;;0.63;88.32
75521;BME280;64102;48.628;9.002;2022-12-07T08:15:46;96062.63;;;0.69;86.55
75521;BME280;64102;48.628;9.002;2022-12-07T08:18:14;96061.31;;;0.78;84.93
75521;BME280;64102;48.628;9.002;2022-12-07T08:20:41;96059.53;;;0.80;85.50
75521;BME280;64102;48.628;9.002;2022-12-07T08:23:07;96060.78;;;0.88;84.99
75521;BME280;64102;48.628;9.002;2022-12-07T08:25:34;96062.38;;;0.89;84.50
75521;BME280;64102;48.628;9.002;2022-12-07T08:27:59;96067.16;;;0.96;84.40
75521;BME280;64102;48.628;9.002;2022-12-07T08:30:25;96073.28;;;1.07;83.29
75521;BME280;64102;48.628;9.002;2022-12-07T08:32:51;96070.50;;;1.12;83.37
75521;BME280;64102;48.628;9.002;2022-12-07T08:35:16;96069.47;;;1.16;82.54
75521;BME280;64102;48.628;9.002;2022-12-07T08:37:42;96068.78;;;1.12;84.24
75521;BME280;64102;48.628;9.002;2022-12-07T08:40:09;96066.25;;;1.12;84.25
75521;BME280;64102;48.628;9.002;2022-12-07T08:42:35;96060.09;;;1.16;83.68
75521;BME280;64102;48.628;9.002;2022-12-07T08:45:07;96066.59;;;1.22;84.13
75521;BME280;64102;48.628;9.002;2022-12-07T08:47:37;96060.53;;;1.24;83.87
75521;BME280;64102;48.628;9.002;2022-12-07T08:50:05;96058.63;;;1.28;82.44
75521;BME280;64102;48.628;9.002;2022-12-07T08:52:33;96064.28;;;1.33;82.94
75521;BME280;64102;48.628;9.002;2022-12-07T08:55:00;96070.84;;;1.37;82.37
75521;BME280;64102;48.628;9.002;2022-12-07T08:57:27;96073.41;;;1.37;82.92
75521;BME280;64102;48.628;9.002;2022-12-07T08:59:53;96075.44;;;1.30;82.87
75521;BME280;64102;48.628;9.002;2022-12-07T09:02:19;96077.59;;;1.38;83.47
75521;BME280;64102;48.628;9.002;2022-12-07T09:04:44;96072.78;;;1.48;83.41
75521;BME280;64102;48.628;9.002;2022-12-07T09:07:10;96071.78;;;1.66;82.56
75521;BME280;64102;48.628;9.002;2022-12-07T09:09:35;96068.00;;;1.73;81.50
75521;BME280;64102;48.628;9.002;2022-12-07T09:12:01;96063.22;;;1.83;81.27
75521;BME280;64102;48.628;9.002;2022-12-07T09:14:26;96073.56;;;1.79;81.53
75521;BME280;64102;48.628;9.002;2022-12-07T09:16:52;96083.00;;;1.77;82.23
75521;BME280;64102;48.628;9.002;2022-12-07T09:19:18;96081.94;;;1.82;81.82
75521;BME280;64102;48.628;9.002;2022-12-07T09:21:44;96085.25;;;1.98;80.84
75521;BME280;64102;48.628;9.002;2022-12-07T09:24:12;96080.13;;;2.13;80.64
75521;BME280;64102;48.628;9.002;2022-12-07T09:26:37;96080.88;;;2.30;80.21
75521;BME280;64102;48.628;9.002;2022-12-07T09:29:04;96082.44;;;2.46;78.75
75521;BME280;64102;48.628;9.002;2022-12-07T09:31:30;96084.81;;;2.49;77.83
75521;BME280;64102;48.628;9.002;2022-12-07T09:33:57;96080.81;;;2.59;77.80
75521;BME280;64102;48.628;9.002;2022-12-07T09:36:23;96076.00;;;2.69;78.50
75521;BME280;64102;48.628;9.002;2022-12-07T09:38:48;96079.16;;;2.72;78.35
75521;BME280;64102;48.628;9.002;2022-12-07T09:41:14;96071.09;;;2.80;77.60
75521;BME280;64102;48.628;9.002;2022-12-07T09:43:40;96061.31;;;2.87;77.42
75521;BME280;64102;48.628;9.002;2022-12-07T09:46:10;96057.53;;;2.80;77.33
75521;BME280;64102;48.628;9.002;2022-12-07T09:48:38;96058.06;;;2.70;78.57
75521;BME280;64102;48.628;9.002;2022-12-07T09:51:15;96058.34;;;2.80;78.06
75521;BME280;64102;48.628;9.002;2022-12-07T09:53:42;96052.63;;;2.77;77.74
75521;BME280;64102;48.628;9.002;2022-12-07T09:56:11;96048.03;;;2.82;77.31
75521;BME280;64102;48.628;9.002;2022-12-07T09:58:38;96047.06;;;2.84;76.96
75521;BME280;64102;48.628;9.002;2022-12-07T10:01:17;96042.50;;;2.89;76.66
75521;BME280;64102;48.628;9.002;2022-12-07T10:04:19;96043.75;;;2.96;77.97
75521;BME280;64102;48.628;9.002;2022-12-07T10:06:47;96043.38;;;3.02;75.89
75521;BME280;64102;48.628;9.002;2022-12-07T10:09:15;96034.69;;;3.19;76.21
75521;BME280;64102;48.628;9.002;2022-12-07T10:14:30;96031.53;;;3.15;75.81
75521;BME280;64102;48.628;9.002;2022-12-07T10:16:57;96039.16;;;3.30;75.66
75521;BME280;64102;48.628;9.002;2022-12-07T10:19:28;96041.91;;;3.39;75.29
75521;BME280;64102;48.628;9.002;2022-12-07T10:22:12;96032.25;;;3.44;73.58
75521;BME280;64102;48.628;9.002;2022-12-07T10:25:19;96027.88;;;3.46;72.78
75521;BME280;64102;48.628;9.002;2022-12-07T10:27:57;96033.28;;;3.42;72.95
75521;BME280;64102;48.628;9.002;2022-12-07T10:30:23;96030.06;;;3.52;73.03
75521;BME280;64102;48.628;9.002;2022-12-07T10:32:48;96023.69;;;3.45;72.99
75521;BME280;64102;48.628;9.002;2022-12-07T10:35:30;96024.88;;;3.40;73.51
75521;BME280;64102;48.628;9.002;2022-12-07T10:37:58;96029.66;;;3.58;73.75
75521;BME280;64102;48.628;9.002;2022-12-07T10:43:04;96027.97;;;3.45;74.85
75521;BME280;64102;48.628;9.002;2022-12-07T10:57:16;96000.34;;;2.98;75.46
75521;BME280;64102;48.628;9.002;2022-12-07T10:59:48;95998.41;;;3.01;75.40
75521;BME280;64102;48.628;9.002;2022-12-07T11:18:26;95995.41;;;3.48;75.13
75521;BME280;64102;48.628;9.002;2022-12-07T11:24:01;95988.41;;;3.52;74.89
75521;BME280;64102;48.628;9.002;2022-12-07T11:37:36;95967.34;;;3.36;74.30
75521;BME280;64102;48.628;9.002;2022-12-07T11:40:17;95971.69;;;3.48;74.35
75521;BME280;64102;48.628;9.002;2022-12-07T11:42:53;95967.28;;;3.63;73.75
75521;BME280;64102;48.628;9.002;2022-12-07T11:48:53;95945.97;;;3.76;71.22
75521;BME280;64102;48.628;9.002;2022-12-07T11:51:20;95946.59;;;3.80;71.56
75521;BME280;64102;48.628;9.002;2022-12-07T11:56:17;95952.34;;;3.96;71.71
75521;BME280;64102;48.628;9.002;2022-12-07T12:06:34;95941.00;;;4.00;73.22
75521;BME280;64102;48.628;9.002;2022-12-07T12:17:52;95937.13;;;3.82;72.64
75521;BME280;64102;48.628;9.002;2022-12-07T12:20:54;95932.22;;;3.79;73.14
75521;BME280;64102;48.628;9.002;2022-12-07T12:26:07;95929.97;;;3.74;73.78
75521;BME280;64102;48.628;9.002;2022-12-07T12:31:15;95922.63;;;3.70;74.09
75521;BME280;64102;48.628;9.002;2022-12-07T12:33:48;95923.63;;;3.67;72.83
75521;BME280;64102;48.628;9.002;2022-12-07T12:38:50;95916.78;;;3.55;73.72
75521;BME280;64102;48.628;9.002;2022-12-07T12:44:00;95921.06;;;3.54;75.32
75521;BME280;64102;48.628;9.002;2022-12-07T12:48:55;95911.06;;;3.51;75.76
75521;BME280;64102;48.628;9.002;2022-12-07T12:51:40;95908.91;;;3.58;76.50
75521;BME280;64102;48.628;9.002;2022-12-07T12:54:14;95908.63;;;3.63;74.13
75521;BME280;64102;48.628;9.002;2022-12-07T12:59:34;95907.09;;;3.73;74.73
75521;BME280;64102;48.628;9.002;2022-12-07T13:04:53;95906.78;;;3.77;73.99
75521;BME280;64102;48.628;9.002;2022-12-07T13:15:49;95888.13;;;3.77;74.64
75521;BME280;64102;48.628;9.002;2022-12-07T13:20:59;95881.56;;;3.85;75.06
75521;BME280;64102;48.628;9.002;2022-12-07T13:24:11;95884.13;;;3.85;74.46
75521;BME280;64102;48.628;9.002;2022-12-07T13:31:45;95881.59;;;3.73;75.87
75521;BME280;64102;48.628;9.002;2022-12-07T13:34:46;95881.69;;;3.84;75.84
75521;BME280;64102;48.628;9.002;2022-12-07T13:39:49;95881.28;;;3.77;75.46
75521;BME280;64102;48.628;9.002;2022-12-07T13:44:47;95878.81;;;3.76;76.05
75521;BME280;64102;48.628;9.002;2022-12-07T13:47:20;95880.97;;;3.82;76.17
75521;BME280;64102;48.628;9.002;2022-12-07T13:49:56;95877.22;;;3.75;76.63
75521;BME280;64102;48.628;9.002;2022-12-07T13:52:24;95878.91;;;3.49;78.31
75521;BME280;64102;48.628;9.002;2022-12-07T13:57:33;95874.53;;;3.64;78.49
75521;BME280;64102;48.628;9.002;2022-12-07T14:00:01;95871.78;;;3.67;77.57
75521;BME280;64102;48.628;9.002;2022-12-07T14:02:27;95876.88;;;3.41;77.14
75521;BME280;64102;48.628;9.002;2022-12-07T14:05:12;95874.38;;;3.14;79.26
75521;BME280;64102;48.628;9.002;2022-12-07T14:08:03;95875.56;;;3.09;78.46
75521;BME280;64102;48.628;9.002;2022-12-07T14:10:31;95876.63;;;3.19;79.17
75521;BME280;64102;48.628;9.002;2022-12-07T14:12:59;95875.09;;;3.17;77.84
75521;BME280;64102;48.628;9.002;2022-12-07T14:15:29;95872.06;;;3.24;79.27
75521;BME280;64102;48.628;9.002;2022-12-07T14:17:56;95879.09;;;3.33;78.06
75521;BME280;64102;48.628;9.002;2022-12-07T14:20:35;95877.47;;;3.32;78.45
75521;BME280;64102;48.628;9.002;2022-12-07T14:23:02;95868.00;;;3.34;77.77
75521;BME280;64102;48.628;9.002;2022-12-07T14:25:47;95865.00;;;3.15;79.05
75521;BME280;64102;48.628;9.002;2022-12-07T14:28:30;95869.78;;;3.07;79.26
75521;BME280;64102;48.628;9.002;2022-12-07T14:30:56;95866.03;;;2.86;80.15
75521;BME280;64102;48.628;9.002;2022-12-07T14:33:22;95867.13;;;2.82;80.56
75521;BME280;64102;48.628;9.002;2022-12-07T14:35:49;95870.91;;;2.76;80.95
75521;BME280;64102;48.628;9.002;2022-12-07T14:38:14;95869.59;;;2.83;79.91
75521;BME280;64102;48.628;9.002;2022-12-07T14:40:40;95869.47;;;2.72;80.64
75521;BME280;64102;48.628;9.002;2022-12-07T14:43:11;95875.63;;;2.68;81.48
75521;BME280;64102;48.628;9.002;2022-12-07T14:45:37;95878.88;;;2.57;81.99
75521;BME280;64102;48.628;9.002;2022-12-07T14:48:05;95880.88;;;2.52;81.90
75521;BME280;64102;48.628;9.002;2022-12-07T14:50:36;95875.22;;;2.61;81.16
75521;BME280;64102;48.628;9.002;2022-12-07T14:53:09;95877.41;;;2.67;80.70
75521;BME280;64102;48.628;9.002;2022-12-07T14:55:37;95873.63;;;2.73;80.27
75521;BME280;64102;48.628;9.002;2022-12-07T14:58:03;95878.69;;;2.60;80.30
75521;BME280;64102;48.628;9.002;2022-12-07T15:00:28;95884.44;;;2.50;80.75
75521;BME280;64102;48.628;9.002;2022-12-07T15:02:54;95878.00;;;2.44;81.92
75521;BME280;64102;48.628;9.002;2022-12-07T15:05:20;95875.53;;;2.43;82.47
75521;BME280;64102;48.628;9.002;2022-12-07T15:07:47;95880.63;;;2.43;82.37
75521;BME280;64102;48.628;9.002;2022-12-07T15:10:18;95875.81;;;2.38;82.12
75521;BME280;64102;48.628;9.002;2022-12-07T15:12:45;95879.47;;;2.34;82.12
75521;BME280;64102;48.628;9.002;2022-12-07T15:15:11;95878.75;;;2.32;82.26
75521;BME280;64102;48.628;9.002;2022-12-07T15:17:36;95884.41;;;2.23;83.08
75521;BME280;64102;48.628;9.002;2022-12-07T15:20:02;95874.22;;;2.23;82.74
75521;BME280;64102;48.628;9.002;2022-12-07T15:22:28;95877.97;;;2.17;83.72
75521;BME280;64102;48.628;9.002;2022-12-07T15:24:56;95874.31;;;2.21;84.50
75521;BME280;64102;48.628;9.002;2022-12-07T15:27:22;95872.59;;;2.08;84.59
75521;BME280;64102;48.628;9.002;2022-12-07T15:29:47;95873.16;;;2.13;83.15
75521;BME280;64102;48.628;9.002;2022-12-07T15:32:12;95872.69;;;2.06;82.88
75521;BME280;64102;48.628;9.002;2022-12-07T15:34:38;95866.63;;;1.95;83.34
75521;BME280;64102;48.628;9.002;2022-12-07T15:37:03;95864.97;;;1.94;83.17
75521;BME280;64102;48.628;9.002;2022-12-07T15:39:29;95866.63;;;1.95;83.36
75521;BME280;64102;48.628;9.002;2022-12-07T15:41:54;95869.97;;;1.95;83.67
75521;BME280;64102;48.628;9.002;2022-12-07T15:44:20;95873.50;;;1.93;83.17
75521;BME280;64102;48.628;9.002;2022-12-07T15:47:04;95873.88;;;1.72;83.98